Zachow, Wisconsin
Current Conditions -  °F | °C
As of 8:15 PM on Sunday 25 Jan 2015 (Local Time) from KEZS Reporting Station
Overcast Overcast  
Wind Chill: 18°   Ceiling: 11000
Heat Index: 18°   Visibility: 10mi
Dew Point:   Wind: 0mph
Humidity: 68%   Direction: NA
Pressure: 30.1"   Gusts: NA
Location:  44.73°N, 88.36°W
Report Text: KEZS 260215Z AUTO 00000KT 10SM OVC110 M08/M13 A3010 RMK AO2 T10771127
Loading
Personal Weather Stations






























Interactive Weather Map New forecast layout! Learn more

10-Day Weather Forecast

Advertisements
Track Severe Weather on mobile